Roy, Washington
Current Conditions -  °F | °C
As of 2:03 PM on Thursday 23 Oct 2014 (Local Time) from KGRF Reporting Station
Drizzle Drizzle  
Wind Chill: 57°   Ceiling: 3400
Heat Index: 57°   Visibility: 10mi
Dew Point: 50°   Wind: 15mph
Humidity: 77%   Direction: 150°SSE
Pressure: 29.84"   Gusts: 21mph
Location:  47°N, 122.54°W
Report Text: KGRF 232103Z AUTO 15013G18KT 10SM DZ SCT027 BKN034 14/10 A2984 RMK AO2
Loading
Personal Weather Stations






























Interactive Weather Map
Tropical Storm Tracking
New forecast layout! Learn more

10-Day Weather Forecast

Advertisements
Track Severe Weather on mobile